createdAt,value
2019-01-24T00:01:05.603Z,38.75
2019-01-24T00:04:16.738Z,46.10
2019-01-24T00:07:21.114Z,34.60
2019-01-24T00:10:28.027Z,46.53
2019-01-24T00:13:34.995Z,29.92
2019-01-24T00:16:41.990Z,35.80
2019-01-24T00:19:49.173Z,32.67
2019-01-24T00:22:56.343Z,37.70
2019-01-24T00:26:03.221Z,36.20
2019-01-24T00:29:11.350Z,31.52
2019-01-24T00:32:18.218Z,37.13
2019-01-24T00:35:25.112Z,37.55
2019-01-24T00:38:32.078Z,39.80
2019-01-24T00:41:38.989Z,32.15
2019-01-24T00:44:46.332Z,45.43
2019-01-24T00:47:55.512Z,42.08
2019-01-24T00:51:02.315Z,35.00
2019-01-24T00:54:09.234Z,34.78
2019-01-24T00:57:16.107Z,35.28
2019-01-24T01:00:25.692Z,36.53
2019-01-24T01:03:32.582Z,41.13
2019-01-24T01:06:39.483Z,39.13
2019-01-24T01:09:47.864Z,36.48
2019-01-24T01:12:56.866Z,35.75
2019-01-24T01:16:03.753Z,34.83
2019-01-24T01:19:10.679Z,31.45
2019-01-24T01:22:17.551Z,36.03
2019-01-24T01:25:24.469Z,28.83
2019-01-24T01:28:31.341Z,32.65
2019-01-24T01:31:38.669Z,35.85
2019-01-24T01:34:45.588Z,35.40
2019-01-24T01:37:53.743Z,44.45
2019-01-24T01:41:01.881Z,33.45
2019-01-24T01:44:08.807Z,40.17
2019-01-24T01:47:18.635Z,30.70
2019-01-24T01:50:26.487Z,36.13
2019-01-24T01:53:33.362Z,32.20
2019-01-24T01:56:40.273Z,34.15
2019-01-24T01:59:48.204Z,34.35
2019-01-24T02:02:55.117Z,33.15
2019-01-24T02:06:01.982Z,28.12
2019-01-24T02:09:10.871Z,37.58
2019-01-24T02:12:17.810Z,41.28
2019-01-24T02:15:25.040Z,40.78
2019-01-24T02:18:31.986Z,39.65
2019-01-24T02:21:38.963Z,45.45
2019-01-24T02:24:47.081Z,40.08
2019-01-24T02:27:57.341Z,39.70
2019-01-24T02:31:04.233Z,42.55
2019-01-24T02:34:12.122Z,35.83
2019-01-24T02:37:19.509Z,42.80
2019-01-24T02:40:26.555Z,41.90
2019-01-24T02:43:33.429Z,34.33
2019-01-24T02:46:40.355Z,40.75
2019-01-24T02:49:49.884Z,35.78
2019-01-24T02:52:56.825Z,29.55
2019-01-24T02:56:03.621Z,43.63
2019-01-24T02:59:10.539Z,38.20
2019-01-24T03:02:17.445Z,38.48
2019-01-24T03:05:25.098Z,34.63
2019-01-24T03:08:31.985Z,31.07
2019-01-24T03:11:38.884Z,33.73
2019-01-24T03:14:46.173Z,33.78
2019-01-24T03:17:53.570Z,31.42
2019-01-24T03:21:00.432Z,33.15
2019-01-24T03:24:07.327Z,35.28
2019-01-24T03:27:15.270Z,31.50
2019-01-24T03:30:23.285Z,37.30
2019-01-24T03:33:30.125Z,31.65
2019-01-24T03:36:37.112Z,34.27
2019-01-24T03:39:44.259Z,37.98
2019-01-24T03:42:51.234Z,38.55
2019-01-24T03:45:58.107Z,41.35
2019-01-24T03:49:05.004Z,37.40
2019-01-24T03:52:12.126Z,43.15
2019-01-24T03:55:20.983Z,36.98
2019-01-24T03:58:28.824Z,33.95
2019-01-24T04:01:35.725Z,34.67
2019-01-24T04:04:44.606Z,34.78
2019-01-24T04:07:51.277Z,38.48
2019-01-24T04:10:58.087Z,33.25
2019-01-24T04:14:05.003Z,36.15
2019-01-24T04:17:11.874Z,37.80
2019-01-24T04:20:18.800Z,33.58
2019-01-24T04:23:25.672Z,29.90
2019-01-24T04:26:32.588Z,39.05
2019-01-24T04:29:39.459Z,35.40
2019-01-24T04:32:49.087Z,36.70
2019-01-24T04:35:55.948Z,43.98
2019-01-24T04:39:03.054Z,42.43
2019-01-24T04:42:09.982Z,35.35
2019-01-24T04:45:17.676Z,42.65
2019-01-24T04:48:24.614Z,35.75
2019-01-24T04:51:31.453Z,43.78
2019-01-24T04:54:38.773Z,42.10
2019-01-24T04:57:45.693Z,37.60
2019-01-24T05:00:53.775Z,29.87
2019-01-24T05:04:00.760Z,47.88
2019-01-24T05:07:07.635Z,29.30
2019-01-24T05:10:14.550Z,39.15
2019-01-24T05:13:21.419Z,35.70
2019-01-24T05:16:28.316Z,36.45
2019-01-24T05:19:35.201Z,46.77
2019-01-24T05:22:42.543Z,30.48
2019-01-24T05:25:49.719Z,34.20
2019-01-24T05:28:56.629Z,39.23
2019-01-24T05:32:03.500Z,45.33
2019-01-24T05:35:10.762Z,42.53
2019-01-24T05:38:17.631Z,35.60
2019-01-24T05:41:24.558Z,34.33
2019-01-24T05:44:31.464Z,34.80
2019-01-24T05:47:38.393Z,37.10
2019-01-24T05:50:45.611Z,28.10
2019-01-24T05:53:52.450Z,39.27
2019-01-24T05:57:01.177Z,39.65
2019-01-24T06:00:15.706Z,35.20
2019-01-24T06:03:23.566Z,35.85
2019-01-24T06:06:30.501Z,34.67
2019-01-24T06:09:37.462Z,37.40
2019-01-24T06:12:44.379Z,35.43
2019-01-24T06:15:51.258Z,39.48
2019-01-24T06:18:58.252Z,32.42
2019-01-24T06:22:05.147Z,39.42
2019-01-24T06:25:15.154Z,43.55
2019-01-24T06:28:22.013Z,34.00
2019-01-24T06:31:28.923Z,42.75
2019-01-24T06:34:35.799Z,38.58
2019-01-24T06:37:43.411Z,34.50
2019-01-24T06:40:50.284Z,35.68
2019-01-24T06:43:57.500Z,36.38
2019-01-24T06:47:04.372Z,39.80
2019-01-24T06:50:13.257Z,40.33
2019-01-24T06:53:20.125Z,38.28
2019-01-24T06:56:27.164Z,32.95
2019-01-24T06:59:34.351Z,37.45
2019-01-24T07:02:41.253Z,34.60
2019-01-24T07:05:48.177Z,44.42
2019-01-24T07:08:55.246Z,32.40
2019-01-24T07:12:02.253Z,34.67
2019-01-24T07:15:14.858Z,45.48
2019-01-24T07:18:21.740Z,37.85
2019-01-24T07:21:28.763Z,36.50
2019-01-24T07:24:35.622Z,35.43
2019-01-24T07:27:42.551Z,38.67
2019-01-24T07:30:49.407Z,33.10
2019-01-24T07:33:57.151Z,38.60
2019-01-24T07:37:04.201Z,37.05
2019-01-24T07:40:13.376Z,36.40
2019-01-24T07:43:20.234Z,36.88
2019-01-24T07:46:27.153Z,39.35
2019-01-24T07:49:34.029Z,43.63
2019-01-24T07:52:40.939Z,38.98
2019-01-24T07:55:47.810Z,44.75
2019-01-24T07:58:55.049Z,43.95
2019-01-24T08:02:02.959Z,38.35
2019-01-24T08:05:12.381Z,39.25
2019-01-24T08:08:19.245Z,42.05
2019-01-24T08:11:26.156Z,46.33
2019-01-24T08:14:32.953Z,39.00
2019-01-24T08:17:39.886Z,35.63
2019-01-24T08:20:46.833Z,35.35
2019-01-24T08:23:56.084Z,28.62
2019-01-24T08:27:03.419Z,35.08
2019-01-24T08:30:18.908Z,39.25
2019-01-24T08:33:25.820Z,46.33
2019-01-24T08:36:32.723Z,45.10
2019-01-24T08:39:39.609Z,36.33
2019-01-24T08:42:46.516Z,43.25
2019-01-24T08:45:53.603Z,43.73
2019-01-24T08:49:00.611Z,39.90
2019-01-24T08:52:07.518Z,35.38
2019-01-24T08:55:39.324Z,35.03
2019-01-24T08:58:46.237Z,40.15
2019-01-24T09:01:53.174Z,35.25
2019-01-24T09:05:03.482Z,55.30
2019-01-24T09:08:10.395Z,41.98
2019-01-24T09:11:19.605Z,38.78
2019-01-24T09:14:26.537Z,43.63
2019-01-24T09:17:33.430Z,46.30
2019-01-24T09:20:40.374Z,44.85
2019-01-24T09:23:47.260Z,48.13
2019-01-24T09:26:54.626Z,42.35
2019-01-24T09:30:01.693Z,39.23
2019-01-24T09:33:08.803Z,38.45
2019-01-24T09:36:15.699Z,38.58
2019-01-24T09:39:22.598Z,37.70
2019-01-24T09:42:30.538Z,44.53
2019-01-24T09:45:38.507Z,38.58
2019-01-24T09:48:45.371Z,37.50
2019-01-24T09:51:52.280Z,36.75
2019-01-24T09:54:59.475Z,40.90
2019-01-24T09:58:06.742Z,35.13
2019-01-24T10:01:13.620Z,35.55
2019-01-24T10:04:20.517Z,40.23
2019-01-24T10:07:27.708Z,44.45
2019-01-24T10:10:35.490Z,32.75
2019-01-24T10:13:42.355Z,46.83
2019-01-24T10:16:49.297Z,35.10
2019-01-24T10:19:58.849Z,51.30
2019-01-24T10:23:05.799Z,41.88
2019-01-24T10:26:12.671Z,36.48
2019-01-24T10:29:19.664Z,39.80
2019-01-24T10:32:26.559Z,39.08
2019-01-24T10:35:33.469Z,51.65
2019-01-24T10:38:40.339Z,37.70
2019-01-24T10:41:47.252Z,37.65
2019-01-24T10:44:54.655Z,43.33
2019-01-24T10:48:01.890Z,43.30
2019-01-24T10:51:10.854Z,38.02
2019-01-24T10:54:17.847Z,41.35
2019-01-24T10:57:24.705Z,36.88
2019-01-24T11:00:42.867Z,45.55
2019-01-24T11:03:50.975Z,47.75
2019-01-24T11:07:00.661Z,39.73
2019-01-24T11:10:08.521Z,39.67
2019-01-24T11:13:25.064Z,39.27
2019-01-24T11:16:33.660Z,46.35
2019-01-24T11:19:40.616Z,52.08
2019-01-24T11:22:47.629Z,40.85
2019-01-24T11:25:55.727Z,39.40
2019-01-24T11:29:02.811Z,40.33
2019-01-24T11:32:10.012Z,42.90
2019-01-24T11:35:18.633Z,34.33
2019-01-24T11:38:25.530Z,41.02
2019-01-24T11:41:32.430Z,24.12
2019-01-24T11:44:39.417Z,37.17
2019-01-24T11:47:46.991Z,37.55
2019-01-24T11:50:55.141Z,39.58
2019-01-24T11:54:06.434Z,34.33
2019-01-24T11:57:13.399Z,39.03
2019-01-24T12:00:32.237Z,38.88
2019-01-24T12:03:39.188Z,26.02
2019-01-24T12:06:46.066Z,40.48
2019-01-24T12:09:53.077Z,23.60
2019-01-24T12:13:00.823Z,39.38
2019-01-24T12:16:07.725Z,35.13
2019-01-24T12:19:14.625Z,43.55
2019-01-24T12:22:21.630Z,39.00
2019-01-24T12:25:28.577Z,36.65
2019-01-24T12:28:35.494Z,45.70
2019-01-24T12:31:43.431Z,32.63
2019-01-24T12:34:50.475Z,29.12
2019-01-24T12:37:57.778Z,34.95
2019-01-24T12:41:04.818Z,38.78
2019-01-24T12:44:11.775Z,27.27
2019-01-24T12:47:18.705Z,40.58
2019-01-24T12:50:25.798Z,40.00
2019-01-24T12:53:32.705Z,41.35
2019-01-24T12:56:39.702Z,42.53
2019-01-24T12:59:46.638Z,37.63
2019-01-24T13:02:54.996Z,39.98
2019-01-24T13:06:04.062Z,39.73
2019-01-24T13:09:11.014Z,31.20
2019-01-24T13:12:17.985Z,36.48
2019-01-24T13:15:28.684Z,39.18
2019-01-24T13:18:36.199Z,42.17
2019-01-24T13:21:43.115Z,27.10
2019-01-24T13:24:50.070Z,33.90
2019-01-24T13:27:57.226Z,43.58
2019-01-24T13:31:04.252Z,37.70
2019-01-24T13:34:13.408Z,33.28
2019-01-24T13:37:25.731Z,37.90
2019-01-24T13:40:31.951Z,37.17
2019-01-24T13:43:38.948Z,34.03
2019-01-24T13:46:45.873Z,40.50
2019-01-24T13:49:55.637Z,34.88
2019-01-24T13:53:02.508Z,36.25
2019-01-24T13:56:09.439Z,33.08
2019-01-24T13:59:16.345Z,38.73
2019-01-24T14:02:23.284Z,38.10
2019-01-24T14:05:30.192Z,39.60
2019-01-24T14:08:37.160Z,40.03
2019-01-24T14:11:44.115Z,37.80
2019-01-24T14:14:51.663Z,41.85
2019-01-24T14:18:01.611Z,42.45
2019-01-24T14:21:08.582Z,31.35
2019-01-24T14:24:15.519Z,39.00
2019-01-24T14:27:22.355Z,37.73
2019-01-24T14:30:29.271Z,35.60
2019-01-24T14:33:36.211Z,43.58
2019-01-24T14:36:44.729Z,37.20
2019-01-24T14:39:53.430Z,34.35
2019-01-24T14:43:01.727Z,39.03
2019-01-24T14:46:08.656Z,29.25
2019-01-24T14:49:15.451Z,27.70
2019-01-24T14:52:22.430Z,42.67
2019-01-24T14:55:29.321Z,46.42
2019-01-24T14:58:36.229Z,39.45
2019-01-24T15:01:43.102Z,37.70
2019-01-24T15:04:51.821Z,35.00
2019-01-24T15:08:01.016Z,38.65
2019-01-24T15:11:07.972Z,33.48
2019-01-24T15:14:14.856Z,32.70
2019-01-24T15:17:21.787Z,36.15
2019-01-24T15:20:30.073Z,37.10
2019-01-24T15:23:36.927Z,33.70
2019-01-24T15:26:43.869Z,33.08
2019-01-24T15:29:51.098Z,37.40
2019-01-24T15:32:57.967Z,27.10
2019-01-24T15:36:05.129Z,33.75
2019-01-24T15:39:12.000Z,33.75
2019-01-24T15:42:18.998Z,37.28
2019-01-24T15:45:26.050Z,34.10
2019-01-24T15:48:33.070Z,34.92
2019-01-24T15:51:39.952Z,42.70
2019-01-24T15:54:46.935Z,38.78
2019-01-24T15:57:56.649Z,40.50
2019-01-24T16:01:03.808Z,38.23
2019-01-24T16:04:10.661Z,46.23
2019-01-24T16:07:17.763Z,41.60
2019-01-24T16:10:24.810Z,42.50
2019-01-24T16:13:35.413Z,34.20
2019-01-24T16:16:42.414Z,38.70
2019-01-24T16:19:51.903Z,31.40
2019-01-24T16:23:00.162Z,34.83
2019-01-24T16:26:08.579Z,38.70
2019-01-24T16:29:15.483Z,40.15
2019-01-24T16:32:22.571Z,33.42
2019-01-24T16:35:31.797Z,38.98
2019-01-24T16:38:39.995Z,34.70
2019-01-24T16:41:47.073Z,35.03
2019-01-24T16:44:54.075Z,34.90
2019-01-24T16:48:01.140Z,38.17
2019-01-24T16:51:11.935Z,37.40
2019-01-24T16:54:18.858Z,39.23
2019-01-24T16:57:25.771Z,43.73
2019-01-24T17:00:43.250Z,38.78
2019-01-24T17:03:50.165Z,36.68
2019-01-24T17:06:57.240Z,43.73
2019-01-24T17:10:05.786Z,32.80
2019-01-24T17:13:12.795Z,42.25
2019-01-24T17:16:19.917Z,33.73
2019-01-24T17:19:26.954Z,34.10
2019-01-24T17:22:33.991Z,39.50
2019-01-24T17:25:41.392Z,34.73
2019-01-24T17:28:49.952Z,31.10
2019-01-24T17:31:56.840Z,35.20
2019-01-24T17:35:05.522Z,31.85
2019-01-24T17:38:12.574Z,25.57
2019-01-24T17:41:19.689Z,26.25
2019-01-24T17:44:27.189Z,24.00
2019-01-24T17:47:34.159Z,24.27
2019-01-24T17:50:41.235Z,25.75
2019-01-24T17:53:48.213Z,28.35
2019-01-24T17:56:55.173Z,27.80
2019-01-24T18:00:02.801Z,22.58
2019-01-24T18:03:12.623Z,24.95
2019-01-24T18:06:19.684Z,20.60
2019-01-24T18:09:26.723Z,24.40
2019-01-24T18:12:46.107Z,26.10
2019-01-24T18:15:54.229Z,30.23
2019-01-24T18:19:03.553Z,24.60
2019-01-24T18:22:13.369Z,31.00
2019-01-24T18:25:20.396Z,31.77
2019-01-24T18:28:27.655Z,25.48
2019-01-24T18:31:34.703Z,23.52
2019-01-24T18:34:41.808Z,33.90
2019-01-24T18:37:48.901Z,26.05
2019-01-24T18:40:55.902Z,29.00
2019-01-24T18:44:06.611Z,25.17
2019-01-24T18:47:13.584Z,27.02
2019-01-24T18:50:22.123Z,18.12
2019-01-24T18:53:29.866Z,21.33
2019-01-24T18:56:36.944Z,28.62
2019-01-24T18:59:44.360Z,25.60
2019-01-24T19:02:51.505Z,25.02
2019-01-24T19:05:58.605Z,27.58
2019-01-24T19:09:09.465Z,28.60
2019-01-24T19:12:16.509Z,26.68
2019-01-24T19:15:23.594Z,24.35
2019-01-24T19:18:30.608Z,29.00
2019-01-24T19:21:37.608Z,30.57
2019-01-24T19:24:44.588Z,22.22
2019-01-24T19:27:51.692Z,28.00
2019-01-24T19:31:00.907Z,29.72
2019-01-24T19:34:08.054Z,26.52
2019-01-24T19:37:15.035Z,25.90
2019-01-24T19:40:23.611Z,27.05
2019-01-24T19:43:30.562Z,29.85
2019-01-24T19:46:37.596Z,30.08
2019-01-24T19:49:44.531Z,29.02
2019-01-24T19:52:52.976Z,28.40
2019-01-24T19:56:00.534Z,21.90
2019-01-24T19:59:08.252Z,23.73
2019-01-24T20:02:17.468Z,25.10
2019-01-24T20:05:24.699Z,26.30
2019-01-24T20:08:31.700Z,25.75
2019-01-24T20:11:38.683Z,26.45
2019-01-24T20:14:45.583Z,26.85
2019-01-24T20:17:52.566Z,25.70
2019-01-24T20:21:00.038Z,29.75
2019-01-24T20:24:07.482Z,24.72
2019-01-24T20:27:14.398Z,28.90
2019-01-24T20:30:26.958Z,29.27
2019-01-24T20:33:34.065Z,25.88
2019-01-24T20:36:40.991Z,23.55
2019-01-24T20:39:47.947Z,30.72
2019-01-24T20:42:54.892Z,19.70
2019-01-24T20:46:02.182Z,23.07
2019-01-24T20:49:09.107Z,24.70
2019-01-24T20:52:16.167Z,19.25
2019-01-24T20:55:23.110Z,26.48
2019-01-24T20:58:29.976Z,25.92
2019-01-24T21:01:36.884Z,27.58
2019-01-24T21:04:43.791Z,29.00
2019-01-24T21:07:51.221Z,27.00
2019-01-24T21:11:00.028Z,26.97
2019-01-24T21:14:10.388Z,24.70
2019-01-24T21:17:18.309Z,25.05
2019-01-24T21:20:27.158Z,21.93
2019-01-24T21:23:34.036Z,27.37
2019-01-24T21:26:40.946Z,23.90
2019-01-24T21:29:47.768Z,25.48
2019-01-24T21:32:54.682Z,25.65
2019-01-24T21:36:03.220Z,33.15
2019-01-24T21:39:11.740Z,25.20
2019-01-24T21:42:18.741Z,20.95
2019-01-24T21:45:29.221Z,24.70
2019-01-24T21:48:36.099Z,24.50
2019-01-24T21:51:43.002Z,26.60
2019-01-24T21:54:49.833Z,26.95
2019-01-24T21:57:56.802Z,28.65
2019-01-24T22:01:05.217Z,27.70
2019-01-24T22:04:12.494Z,22.25
2019-01-24T22:07:19.798Z,24.95
2019-01-24T22:10:28.626Z,21.97
2019-01-24T22:13:35.766Z,30.85
2019-01-24T22:16:42.881Z,24.20
2019-01-24T22:19:49.831Z,24.95
2019-01-24T22:22:58.351Z,26.10
2019-01-24T22:26:06.915Z,33.83
2019-01-24T22:29:14.243Z,21.87
2019-01-24T22:32:21.536Z,25.40
2019-01-24T22:35:28.612Z,25.90
2019-01-24T22:38:35.807Z,26.60
2019-01-24T22:41:42.820Z,31.70
2019-01-24T22:44:49.896Z,29.27
2019-01-24T22:47:58.790Z,26.20
2019-01-24T22:51:05.793Z,26.33
2019-01-24T22:54:14.009Z,27.10
2019-01-24T22:57:21.600Z,28.80
2019-01-24T23:01:22.077Z,23.57
2019-01-24T23:04:30.154Z,22.87
2019-01-24T23:07:37.177Z,26.90
2019-01-24T23:10:44.231Z,29.12
2019-01-24T23:13:51.354Z,29.57
2019-01-24T23:16:58.255Z,26.07
2019-01-24T23:20:06.774Z,25.97
2019-01-24T23:23:14.043Z,27.85
2019-01-24T23:26:20.895Z,27.25
2019-01-24T23:29:27.770Z,27.65
2019-01-24T23:32:34.692Z,24.65
2019-01-24T23:35:41.642Z,23.92
2019-01-24T23:38:49.021Z,25.43
2019-01-24T23:41:56.120Z,23.25
2019-01-24T23:45:03.046Z,26.17
2019-01-24T23:48:10.368Z,27.13
2019-01-24T23:51:17.788Z,28.07
2019-01-24T23:54:24.690Z,26.30
2019-01-24T23:57:31.635Z,24.23
